Howley, Canada
Current Conditions -  °F | °C
As of 12:00 AM on Friday 19 Dec 2014 (Local Time) from CYDF Reporting Station
Overcast Overcast  
Wind Chill: 30°   Ceiling: 1500
Heat Index: 34°   Visibility: 10mi
Dew Point: 34°   Wind: 5mph
Humidity: 100%   Direction: 10°N
Pressure: 29.55"   Gusts: NA
Location:  49.17°N, 57.12°W
Report Text: CYDF 190300Z 01004KT 10SM OVC015 01/01 A2955 RMK SC8 PRESFR SLP008
Loading
Personal Weather Stations






























Interactive Weather Map New forecast layout! Learn more

10-Day Weather Forecast

Advertisements
Track Severe Weather on mobile